sensor_id;sensor_type;location;lat;lon;timestamp;temperature;humidity
54192;DHT22;40101;53.002;6.488;2023-02-19T00:00:04;9.20;99.90
54192;DHT22;40101;53.002;6.488;2023-02-19T00:02:29;9.20;99.90
54192;DHT22;40101;53.002;6.488;2023-02-19T00:04:55;9.30;99.90
54192;DHT22;40101;53.002;6.488;2023-02-19T00:07:21;9.20;99.90
54192;DHT22;40101;53.002;6.488;2023-02-19T00:09:46;9.40;99.90
54192;DHT22;40101;53.002;6.488;2023-02-19T00:12:12;9.10;99.90
54192;DHT22;40101;53.002;6.488;2023-02-19T00:14:38;9.30;99.90
54192;DHT22;40101;53.002;6.488;2023-02-19T00:17:07;9.30;99.90
54192;DHT22;40101;53.002;6.488;2023-02-19T00:19:33;9.30;99.90
54192;DHT22;40101;53.002;6.488;2023-02-19T00:21:58;9.30;99.90
54192;DHT22;40101;53.002;6.488;2023-02-19T00:24:24;9.30;99.90
54192;DHT22;40101;53.002;6.488;2023-02-19T00:26:50;9.30;99.90
54192;DHT22;40101;53.002;6.488;2023-02-19T00:29:20;9.30;99.90
54192;DHT22;40101;53.002;6.488;2023-02-19T00:31:46;9.30;99.90
54192;DHT22;40101;53.002;6.488;2023-02-19T00:34:12;9.30;99.90
54192;DHT22;40101;53.002;6.488;2023-02-19T00:36:40;9.40;99.90
54192;DHT22;40101;53.002;6.488;2023-02-19T00:39:07;9.30;99.90
54192;DHT22;40101;53.002;6.488;2023-02-19T00:41:34;9.50;99.90
54192;DHT22;40101;53.002;6.488;2023-02-19T00:44:02;9.30;99.90
54192;DHT22;40101;53.002;6.488;2023-02-19T00:46:42;9.20;99.90
54192;DHT22;40101;53.002;6.488;2023-02-19T00:49:15;9.10;99.90
54192;DHT22;40101;53.002;6.488;2023-02-19T00:51:41;9.20;99.90
54192;DHT22;40101;53.002;6.488;2023-02-19T00:54:07;9.20;99.90
54192;DHT22;40101;53.002;6.488;2023-02-19T00:56:33;9.20;99.90
54192;DHT22;40101;53.002;6.488;2023-02-19T00:58:58;9.50;99.90
54192;DHT22;40101;53.002;6.488;2023-02-19T01:01:24;9.20;99.90
54192;DHT22;40101;53.002;6.488;2023-02-19T01:03:50;9.30;99.90
54192;DHT22;40101;53.002;6.488;2023-02-19T01:06:17;9.20;99.90
54192;DHT22;40101;53.002;6.488;2023-02-19T01:08:44;9.30;99.90
54192;DHT22;40101;53.002;6.488;2023-02-19T01:11:10;9.20;99.90
54192;DHT22;40101;53.002;6.488;2023-02-19T01:13:36;9.20;99.90
54192;DHT22;40101;53.002;6.488;2023-02-19T01:18:30;9.10;99.90
54192;DHT22;40101;53.002;6.488;2023-02-19T01:20:56;9.30;99.90
54192;DHT22;40101;53.002;6.488;2023-02-19T01:23:21;9.20;99.90
54192;DHT22;40101;53.002;6.488;2023-02-19T01:25:47;9.10;99.90
54192;DHT22;40101;53.002;6.488;2023-02-19T01:28:13;9.10;99.90
54192;DHT22;40101;53.002;6.488;2023-02-19T01:30:38;9.10;99.90
54192;DHT22;40101;53.002;6.488;2023-02-19T01:33:06;9.10;99.90
54192;DHT22;40101;53.002;6.488;2023-02-19T01:35:32;9.10;99.90
54192;DHT22;40101;53.002;6.488;2023-02-19T01:37:58;9.10;99.90
54192;DHT22;40101;53.002;6.488;2023-02-19T01:40:29;9.20;99.90
54192;DHT22;40101;53.002;6.488;2023-02-19T01:42:55;9.00;99.90
54192;DHT22;40101;53.002;6.488;2023-02-19T01:45:31;9.10;99.90
54192;DHT22;40101;53.002;6.488;2023-02-19T01:48:08;9.00;99.90
54192;DHT22;40101;53.002;6.488;2023-02-19T01:50:41;9.00;99.90
54192;DHT22;40101;53.002;6.488;2023-02-19T01:53:11;9.00;99.90
54192;DHT22;40101;53.002;6.488;2023-02-19T01:55:39;8.80;99.90
54192;DHT22;40101;53.002;6.488;2023-02-19T01:58:13;9.00;99.90
54192;DHT22;40101;53.002;6.488;2023-02-19T02:00:40;8.90;99.90
54192;DHT22;40101;53.002;6.488;2023-02-19T02:03:06;8.90;99.90
54192;DHT22;40101;53.002;6.488;2023-02-19T02:05:55;9.10;99.90
54192;DHT22;40101;53.002;6.488;2023-02-19T02:08:23;9.00;99.90
54192;DHT22;40101;53.002;6.488;2023-02-19T02:11:10;9.00;99.90
54192;DHT22;40101;53.002;6.488;2023-02-19T02:13:37;8.90;99.90
54192;DHT22;40101;53.002;6.488;2023-02-19T02:18:53;8.90;99.90
54192;DHT22;40101;53.002;6.488;2023-02-19T02:24:27;8.90;99.90
54192;DHT22;40101;53.002;6.488;2023-02-19T02:30:08;9.00;99.90
54192;DHT22;40101;53.002;6.488;2023-02-19T02:32:44;8.90;99.90
54192;DHT22;40101;53.002;6.488;2023-02-19T02:35:20;8.80;99.90
54192;DHT22;40101;53.002;6.488;2023-02-19T02:37:47;8.80;99.90
54192;DHT22;40101;53.002;6.488;2023-02-19T02:40:14;8.80;99.90
54192;DHT22;40101;53.002;6.488;2023-02-19T02:42:42;9.10;99.90
54192;DHT22;40101;53.002;6.488;2023-02-19T02:51:00;8.80;99.90
54192;DHT22;40101;53.002;6.488;2023-02-19T02:53:43;8.60;99.90
54192;DHT22;40101;53.002;6.488;2023-02-19T02:56:29;8.90;99.90
54192;DHT22;40101;53.002;6.488;2023-02-19T02:58:57;8.80;99.90
54192;DHT22;40101;53.002;6.488;2023-02-19T03:01:27;8.80;99.90
54192;DHT22;40101;53.002;6.488;2023-02-19T03:04:18;8.70;99.90
54192;DHT22;40101;53.002;6.488;2023-02-19T03:06:46;8.70;99.90
54192;DHT22;40101;53.002;6.488;2023-02-19T03:09:25;8.70;99.90
54192;DHT22;40101;53.002;6.488;2023-02-19T03:11:57;8.60;99.90
54192;DHT22;40101;53.002;6.488;2023-02-19T03:14:47;8.40;99.90
54192;DHT22;40101;53.002;6.488;2023-02-19T03:17:45;8.30;99.90
54192;DHT22;40101;53.002;6.488;2023-02-19T03:20:33;8.20;99.90
54192;DHT22;40101;53.002;6.488;2023-02-19T03:23:01;8.10;99.90
54192;DHT22;40101;53.002;6.488;2023-02-19T03:25:30;8.10;99.90
54192;DHT22;40101;53.002;6.488;2023-02-19T03:28:21;8.10;99.90
54192;DHT22;40101;53.002;6.488;2023-02-19T03:31:13;7.90;99.90
54192;DHT22;40101;53.002;6.488;2023-02-19T03:33:42;7.90;99.90
54192;DHT22;40101;53.002;6.488;2023-02-19T03:36:11;7.90;99.90
54192;DHT22;40101;53.002;6.488;2023-02-19T03:38:51;7.80;99.90
54192;DHT22;40101;53.002;6.488;2023-02-19T03:49:25;7.60;99.90
54192;DHT22;40101;53.002;6.488;2023-02-19T03:57:36;7.60;99.90
54192;DHT22;40101;53.002;6.488;2023-02-19T04:00:10;7.40;99.90
54192;DHT22;40101;53.002;6.488;2023-02-19T04:03:08;7.50;99.90
54192;DHT22;40101;53.002;6.488;2023-02-19T04:05:42;7.50;99.90
54192;DHT22;40101;53.002;6.488;2023-02-19T04:08:15;7.50;99.90
54192;DHT22;40101;53.002;6.488;2023-02-19T04:10:44;7.50;99.90
54192;DHT22;40101;53.002;6.488;2023-02-19T04:13:23;7.50;99.90
54192;DHT22;40101;53.002;6.488;2023-02-19T04:15:52;7.30;99.90
54192;DHT22;40101;53.002;6.488;2023-02-19T04:18:22;7.30;99.90
54192;DHT22;40101;53.002;6.488;2023-02-19T04:20:52;7.20;99.90
54192;DHT22;40101;53.002;6.488;2023-02-19T04:23:21;7.40;99.90
54192;DHT22;40101;53.002;6.488;2023-02-19T04:25:50;7.10;99.90
54192;DHT22;40101;53.002;6.488;2023-02-19T04:28:18;7.30;99.90
54192;DHT22;40101;53.002;6.488;2023-02-19T04:30:44;7.10;99.90
54192;DHT22;40101;53.002;6.488;2023-02-19T04:33:10;7.00;99.90
54192;DHT22;40101;53.002;6.488;2023-02-19T04:35:35;7.20;99.90
54192;DHT22;40101;53.002;6.488;2023-02-19T04:38:01;7.20;99.90
54192;DHT22;40101;53.002;6.488;2023-02-19T04:40:27;7.00;99.90
54192;DHT22;40101;53.002;6.488;2023-02-19T04:42:52;7.00;99.90
54192;DHT22;40101;53.002;6.488;2023-02-19T04:45:18;7.20;99.90
54192;DHT22;40101;53.002;6.488;2023-02-19T04:47:44;7.00;99.90
54192;DHT22;40101;53.002;6.488;2023-02-19T04:50:09;6.90;99.90
54192;DHT22;40101;53.002;6.488;2023-02-19T04:52:37;6.90;99.90
54192;DHT22;40101;53.002;6.488;2023-02-19T04:55:04;7.10;99.90
54192;DHT22;40101;53.002;6.488;2023-02-19T04:57:30;6.90;99.90
54192;DHT22;40101;53.002;6.488;2023-02-19T04:59:56;6.90;99.90
54192;DHT22;40101;53.002;6.488;2023-02-19T05:02:21;6.80;99.90
54192;DHT22;40101;53.002;6.488;2023-02-19T05:04:47;6.80;99.90
54192;DHT22;40101;53.002;6.488;2023-02-19T05:07:13;6.90;99.90
54192;DHT22;40101;53.002;6.488;2023-02-19T05:09:39;6.80;99.90
54192;DHT22;40101;53.002;6.488;2023-02-19T05:12:05;6.80;99.90
54192;DHT22;40101;53.002;6.488;2023-02-19T05:14:30;6.80;99.90
54192;DHT22;40101;53.002;6.488;2023-02-19T05:16:56;6.70;99.90
54192;DHT22;40101;53.002;6.488;2023-02-19T05:19:22;6.70;99.90
54192;DHT22;40101;53.002;6.488;2023-02-19T05:21:48;6.80;99.90
54192;DHT22;40101;53.002;6.488;2023-02-19T05:24:13;6.70;99.90
54192;DHT22;40101;53.002;6.488;2023-02-19T05:26:39;6.70;99.90
54192;DHT22;40101;53.002;6.488;2023-02-19T05:29:04;6.70;99.90
54192;DHT22;40101;53.002;6.488;2023-02-19T05:31:30;6.70;99.90
54192;DHT22;40101;53.002;6.488;2023-02-19T05:33:58;6.70;99.90
54192;DHT22;40101;53.002;6.488;2023-02-19T05:36:26;6.70;99.90
54192;DHT22;40101;53.002;6.488;2023-02-19T05:38:53;6.70;99.90
54192;DHT22;40101;53.002;6.488;2023-02-19T05:41:25;6.70;99.90
54192;DHT22;40101;53.002;6.488;2023-02-19T05:43:51;6.60;99.90
54192;DHT22;40101;53.002;6.488;2023-02-19T05:46:19;6.70;99.90
54192;DHT22;40101;53.002;6.488;2023-02-19T05:48:46;6.80;99.90
54192;DHT22;40101;53.002;6.488;2023-02-19T05:51:14;6.80;99.90
54192;DHT22;40101;53.002;6.488;2023-02-19T05:53:40;6.80;99.90
54192;DHT22;40101;53.002;6.488;2023-02-19T05:58:48;6.60;99.90
54192;DHT22;40101;53.002;6.488;2023-02-19T06:01:20;6.60;99.90
54192;DHT22;40101;53.002;6.488;2023-02-19T06:03:46;6.40;99.90
54192;DHT22;40101;53.002;6.488;2023-02-19T06:06:13;6.40;99.90
54192;DHT22;40101;53.002;6.488;2023-02-19T06:08:39;6.50;99.90
54192;DHT22;40101;53.002;6.488;2023-02-19T06:11:05;6.40;99.90
54192;DHT22;40101;53.002;6.488;2023-02-19T06:13:30;6.30;99.90
54192;DHT22;40101;53.002;6.488;2023-02-19T06:15:56;6.30;99.90
54192;DHT22;40101;53.002;6.488;2023-02-19T06:18:22;6.30;99.90
54192;DHT22;40101;53.002;6.488;2023-02-19T06:20:48;6.30;99.90
54192;DHT22;40101;53.002;6.488;2023-02-19T06:23:13;6.20;99.90
54192;DHT22;40101;53.002;6.488;2023-02-19T06:25:40;6.30;99.90
54192;DHT22;40101;53.002;6.488;2023-02-19T06:28:06;6.20;99.90
54192;DHT22;40101;53.002;6.488;2023-02-19T06:30:31;6.20;99.90
54192;DHT22;40101;53.002;6.488;2023-02-19T06:32:57;6.20;99.90
54192;DHT22;40101;53.002;6.488;2023-02-19T06:35:23;6.30;99.90
54192;DHT22;40101;53.002;6.488;2023-02-19T06:37:49;6.30;99.90
54192;DHT22;40101;53.002;6.488;2023-02-19T06:40:17;6.20;99.90
54192;DHT22;40101;53.002;6.488;2023-02-19T06:42:42;6.20;99.90
54192;DHT22;40101;53.002;6.488;2023-02-19T06:45:08;6.40;99.90
54192;DHT22;40101;53.002;6.488;2023-02-19T06:47:34;6.20;99.90
54192;DHT22;40101;53.002;6.488;2023-02-19T06:49:59;6.20;99.90
54192;DHT22;40101;53.002;6.488;2023-02-19T06:52:26;6.10;99.90
54192;DHT22;40101;53.002;6.488;2023-02-19T06:54:52;6.10;99.90
54192;DHT22;40101;53.002;6.488;2023-02-19T06:57:18;6.10;99.90
54192;DHT22;40101;53.002;6.488;2023-02-19T06:59:44;6.10;99.90
54192;DHT22;40101;53.002;6.488;2023-02-19T07:02:11;6.10;99.90
54192;DHT22;40101;53.002;6.488;2023-02-19T07:04:37;6.10;99.90
54192;DHT22;40101;53.002;6.488;2023-02-19T07:07:03;6.20;99.90
54192;DHT22;40101;53.002;6.488;2023-02-19T07:09:29;6.30;99.90
54192;DHT22;40101;53.002;6.488;2023-02-19T07:11:54;6.10;99.90
54192;DHT22;40101;53.002;6.488;2023-02-19T07:14:20;6.00;99.90
54192;DHT22;40101;53.002;6.488;2023-02-19T07:16:46;6.00;99.90
54192;DHT22;40101;53.002;6.488;2023-02-19T07:19:13;6.10;99.90
54192;DHT22;40101;53.002;6.488;2023-02-19T07:21:40;6.00;99.90
54192;DHT22;40101;53.002;6.488;2023-02-19T07:24:07;6.20;99.90
54192;DHT22;40101;53.002;6.488;2023-02-19T07:26:33;6.10;99.90
54192;DHT22;40101;53.002;6.488;2023-02-19T07:28:59;6.20;99.90
54192;DHT22;40101;53.002;6.488;2023-02-19T07:31:28;6.20;99.90
54192;DHT22;40101;53.002;6.488;2023-02-19T07:33:54;6.10;99.90
54192;DHT22;40101;53.002;6.488;2023-02-19T07:36:22;6.10;99.90
54192;DHT22;40101;53.002;6.488;2023-02-19T07:38:55;6.20;99.90
54192;DHT22;40101;53.002;6.488;2023-02-19T07:41:22;6.10;99.90
54192;DHT22;40101;53.002;6.488;2023-02-19T07:43:50;6.10;99.90
54192;DHT22;40101;53.002;6.488;2023-02-19T07:46:16;6.10;99.90
54192;DHT22;40101;53.002;6.488;2023-02-19T07:48:42;6.00;99.90
54192;DHT22;40101;53.002;6.488;2023-02-19T07:51:17;6.00;99.90
54192;DHT22;40101;53.002;6.488;2023-02-19T07:53:45;6.10;99.90
54192;DHT22;40101;53.002;6.488;2023-02-19T07:56:11;6.90;99.90
54192;DHT22;40101;53.002;6.488;2023-02-19T07:58:38;8.10;99.90
54192;DHT22;40101;53.002;6.488;2023-02-19T08:01:17;9.60;99.90
54192;DHT22;40101;53.002;6.488;2023-02-19T08:03:44;10.70;99.90
54192;DHT22;40101;53.002;6.488;2023-02-19T08:06:10;11.80;99.90
54192;DHT22;40101;53.002;6.488;2023-02-19T08:08:37;12.80;99.90
54192;DHT22;40101;53.002;6.488;2023-02-19T08:11:08;13.00;99.90
54192;DHT22;40101;53.002;6.488;2023-02-19T08:13:52;13.50;99.90
54192;DHT22;40101;53.002;6.488;2023-02-19T08:16:21;13.80;99.90
54192;DHT22;40101;53.002;6.488;2023-02-19T08:18:48;13.70;99.90
54192;DHT22;40101;53.002;6.488;2023-02-19T08:21:14;14.00;99.90
54192;DHT22;40101;53.002;6.488;2023-02-19T08:23:42;14.60;99.90
54192;DHT22;40101;53.002;6.488;2023-02-19T08:26:08;15.20;99.90
54192;DHT22;40101;53.002;6.488;2023-02-19T08:28:34;15.60;99.90
54192;DHT22;40101;53.002;6.488;2023-02-19T08:31:02;16.00;99.90
54192;DHT22;40101;53.002;6.488;2023-02-19T08:33:28;16.10;99.90
54192;DHT22;40101;53.002;6.488;2023-02-19T08:35:55;16.10;99.90
54192;DHT22;40101;53.002;6.488;2023-02-19T08:38:24;16.10;99.90
54192;DHT22;40101;53.002;6.488;2023-02-19T08:40:49;16.20;99.90
54192;DHT22;40101;53.002;6.488;2023-02-19T08:43:16;16.40;99.90
54192;DHT22;40101;53.002;6.488;2023-02-19T08:45:44;16.80;99.90
54192;DHT22;40101;53.002;6.488;2023-02-19T08:48:10;17.40;99.90
54192;DHT22;40101;53.002;6.488;2023-02-19T08:50:37;17.70;99.90
54192;DHT22;40101;53.002;6.488;2023-02-19T08:53:04;17.90;99.90
54192;DHT22;40101;53.002;6.488;2023-02-19T08:55:30;18.00;99.90
54192;DHT22;40101;53.002;6.488;2023-02-19T08:57:56;17.10;99.90
54192;DHT22;40101;53.002;6.488;2023-02-19T09:00:22;16.60;99.90
54192;DHT22;40101;53.002;6.488;2023-02-19T09:02:48;16.60;99.90
54192;DHT22;40101;53.002;6.488;2023-02-19T09:05:15;17.00;99.90
54192;DHT22;40101;53.002;6.488;2023-02-19T09:07:41;17.50;99.90
54192;DHT22;40101;53.002;6.488;2023-02-19T09:10:08;17.70;99.90
54192;DHT22;40101;53.002;6.488;2023-02-19T09:12:34;17.00;99.90
54192;DHT22;40101;53.002;6.488;2023-02-19T09:15:00;15.90;99.90
54192;DHT22;40101;53.002;6.488;2023-02-19T09:17:26;14.80;99.90
54192;DHT22;40101;53.002;6.488;2023-02-19T09:19:52;14.30;99.90
54192;DHT22;40101;53.002;6.488;2023-02-19T09:22:17;14.50;99.90
54192;DHT22;40101;53.002;6.488;2023-02-19T09:24:44;15.20;99.90
54192;DHT22;40101;53.002;6.488;2023-02-19T09:27:15;16.40;99.90
54192;DHT22;40101;53.002;6.488;2023-02-19T09:29:41;16.70;99.90
54192;DHT22;40101;53.002;6.488;2023-02-19T09:32:07;16.20;99.90
54192;DHT22;40101;53.002;6.488;2023-02-19T09:34:32;15.60;99.90
54192;DHT22;40101;53.002;6.488;2023-02-19T09:36:58;15.30;99.90
54192;DHT22;40101;53.002;6.488;2023-02-19T09:39:30;15.00;99.90
54192;DHT22;40101;53.002;6.488;2023-02-19T09:42:10;14.40;99.90
54192;DHT22;40101;53.002;6.488;2023-02-19T09:44:53;13.60;99.90
54192;DHT22;40101;53.002;6.488;2023-02-19T09:47:28;13.10;99.90
54192;DHT22;40101;53.002;6.488;2023-02-19T09:50:16;13.40;99.90
54192;DHT22;40101;53.002;6.488;2023-02-19T09:53:01;14.40;99.90
54192;DHT22;40101;53.002;6.488;2023-02-19T09:55:31;15.10;99.90
54192;DHT22;40101;53.002;6.488;2023-02-19T09:58:01;15.20;99.90
54192;DHT22;40101;53.002;6.488;2023-02-19T10:00:32;15.60;99.90
54192;DHT22;40101;53.002;6.488;2023-02-19T10:03:11;16.40;99.90
54192;DHT22;40101;53.002;6.488;2023-02-19T10:05:39;16.80;99.90
54192;DHT22;40101;53.002;6.488;2023-02-19T10:08:11;16.20;99.90
54192;DHT22;40101;53.002;6.488;2023-02-19T10:10:39;15.30;99.90
54192;DHT22;40101;53.002;6.488;2023-02-19T10:13:28;15.00;99.90
54192;DHT22;40101;53.002;6.488;2023-02-19T10:16:03;14.40;99.90
54192;DHT22;40101;53.002;6.488;2023-02-19T10:18:41;13.40;99.90
54192;DHT22;40101;53.002;6.488;2023-02-19T10:21:15;12.60;99.90
54192;DHT22;40101;53.002;6.488;2023-02-19T10:23:42;12.10;99.90
54192;DHT22;40101;53.002;6.488;2023-02-19T10:26:08;11.70;99.90
54192;DHT22;40101;53.002;6.488;2023-02-19T10:28:34;11.80;99.90
54192;DHT22;40101;53.002;6.488;2023-02-19T10:31:03;12.70;99.90
54192;DHT22;40101;53.002;6.488;2023-02-19T10:33:30;13.10;99.90
54192;DHT22;40101;53.002;6.488;2023-02-19T10:36:00;12.80;99.90
54192;DHT22;40101;53.002;6.488;2023-02-19T10:38:32;12.50;99.90
54192;DHT22;40101;53.002;6.488;2023-02-19T10:43:34;11.80;99.90
54192;DHT22;40101;53.002;6.488;2023-02-19T10:46:15;11.50;99.90
54192;DHT22;40101;53.002;6.488;2023-02-19T10:48:49;11.20;99.90
54192;DHT22;40101;53.002;6.488;2023-02-19T10:51:17;11.30;99.90
54192;DHT22;40101;53.002;6.488;2023-02-19T10:53:50;11.20;99.90
54192;DHT22;40101;53.002;6.488;2023-02-19T10:56:27;11.40;99.90
54192;DHT22;40101;53.002;6.488;2023-02-19T10:59:22;11.50;99.90
54192;DHT22;40101;53.002;6.488;2023-02-19T11:02:02;11.40;99.90
54192;DHT22;40101;53.002;6.488;2023-02-19T11:04:30;11.50;99.90
54192;DHT22;40101;53.002;6.488;2023-02-19T11:07:16;11.40;99.90
54192;DHT22;40101;53.002;6.488;2023-02-19T11:09:48;11.30;99.90
54192;DHT22;40101;53.002;6.488;2023-02-19T11:12:27;11.10;99.90
54192;DHT22;40101;53.002;6.488;2023-02-19T11:14:54;10.90;99.90
54192;DHT22;40101;53.002;6.488;2023-02-19T11:17:29;10.90;99.90
54192;DHT22;40101;53.002;6.488;2023-02-19T11:19:57;10.50;99.90
54192;DHT22;40101;53.002;6.488;2023-02-19T11:22:33;10.50;99.90
54192;DHT22;40101;53.002;6.488;2023-02-19T11:25:18;10.30;99.90
54192;DHT22;40101;53.002;6.488;2023-02-19T11:35:40;10.70;99.90
54192;DHT22;40101;53.002;6.488;2023-02-19T11:38:10;10.70;99.90
54192;DHT22;40101;53.002;6.488;2023-02-19T11:49:28;10.80;99.90
54192;DHT22;40101;53.002;6.488;2023-02-19T11:57:47;11.50;99.90
54192;DHT22;40101;53.002;6.488;2023-02-19T12:00:28;11.50;99.90
54192;DHT22;40101;53.002;6.488;2023-02-19T12:03:03;11.30;99.90
54192;DHT22;40101;53.002;6.488;2023-02-19T12:05:49;11.40;99.90
54192;DHT22;40101;53.002;6.488;2023-02-19T12:11:14;11.20;99.90
54192;DHT22;40101;53.002;6.488;2023-02-19T12:13:58;11.10;99.90
54192;DHT22;40101;53.002;6.488;2023-02-19T12:38:44;10.80;99.90
54192;DHT22;40101;53.002;6.488;2023-02-19T12:44:03;11.00;99.90
54192;DHT22;40101;53.002;6.488;2023-02-19T12:46:41;11.10;99.90
54192;DHT22;40101;53.002;6.488;2023-02-19T12:49:10;11.10;99.90
54192;DHT22;40101;53.002;6.488;2023-02-19T12:51:49;11.20;99.90
54192;DHT22;40101;53.002;6.488;2023-02-19T12:54:29;11.20;99.90
54192;DHT22;40101;53.002;6.488;2023-02-19T12:57:11;11.20;99.90
54192;DHT22;40101;53.002;6.488;2023-02-19T13:04:46;10.80;99.90
54192;DHT22;40101;53.002;6.488;2023-02-19T13:07:23;10.70;99.90
54192;DHT22;40101;53.002;6.488;2023-02-19T13:09:53;10.60;99.90
54192;DHT22;40101;53.002;6.488;2023-02-19T13:12:26;10.50;99.90
54192;DHT22;40101;53.002;6.488;2023-02-19T13:15:03;10.40;99.90
54192;DHT22;40101;53.002;6.488;2023-02-19T13:17:49;10.50;99.90
54192;DHT22;40101;53.002;6.488;2023-02-19T13:20:34;10.30;99.90
54192;DHT22;40101;53.002;6.488;2023-02-19T13:26:05;10.20;99.90
54192;DHT22;40101;53.002;6.488;2023-02-19T13:28:39;10.30;99.90
54192;DHT22;40101;53.002;6.488;2023-02-19T13:34:15;10.00;99.90
54192;DHT22;40101;53.002;6.488;2023-02-19T13:36:43;10.00;99.90
54192;DHT22;40101;53.002;6.488;2023-02-19T13:39:13;10.10;99.90
54192;DHT22;40101;53.002;6.488;2023-02-19T13:41:41;10.20;99.90
54192;DHT22;40101;53.002;6.488;2023-02-19T13:44:20;10.00;99.90
54192;DHT22;40101;53.002;6.488;2023-02-19T13:46:47;10.10;99.90
54192;DHT22;40101;53.002;6.488;2023-02-19T13:54:46;10.00;99.90
54192;DHT22;40101;53.002;6.488;2023-02-19T13:59:47;9.90;99.90
54192;DHT22;40101;53.002;6.488;2023-02-19T14:02:27;10.00;99.90
54192;DHT22;40101;53.002;6.488;2023-02-19T14:05:09;9.90;99.90
54192;DHT22;40101;53.002;6.488;2023-02-19T14:07:52;10.10;99.90
54192;DHT22;40101;53.002;6.488;2023-02-19T14:10:51;10.00;99.90
54192;DHT22;40101;53.002;6.488;2023-02-19T14:16:32;9.80;99.90
54192;DHT22;40101;53.002;6.488;2023-02-19T14:19:20;9.90;99.90
54192;DHT22;40101;53.002;6.488;2023-02-19T14:21:59;9.90;99.90
54192;DHT22;40101;53.002;6.488;2023-02-19T14:24:25;10.00;99.90
54192;DHT22;40101;53.002;6.488;2023-02-19T14:26:50;9.90;99.90
54192;DHT22;40101;53.002;6.488;2023-02-19T14:29:16;9.90;99.90
54192;DHT22;40101;53.002;6.488;2023-02-19T14:31:44;9.90;99.90
54192;DHT22;40101;53.002;6.488;2023-02-19T14:34:17;10.00;99.90
54192;DHT22;40101;53.002;6.488;2023-02-19T14:36:56;9.90;99.90
54192;DHT22;40101;53.002;6.488;2023-02-19T14:39:25;9.90;99.90
54192;DHT22;40101;53.002;6.488;2023-02-19T14:41:57;9.70;99.90
54192;DHT22;40101;53.002;6.488;2023-02-19T14:44:29;9.80;99.90
54192;DHT22;40101;53.002;6.488;2023-02-19T14:49:50;9.70;99.90
54192;DHT22;40101;53.002;6.488;2023-02-19T14:52:25;9.70;99.90
54192;DHT22;40101;53.002;6.488;2023-02-19T14:54:53;9.60;99.90
54192;DHT22;40101;53.002;6.488;2023-02-19T14:57:24;9.60;99.90
54192;DHT22;40101;53.002;6.488;2023-02-19T14:59:59;9.60;99.90
54192;DHT22;40101;53.002;6.488;2023-02-19T15:02:27;9.60;99.90
54192;DHT22;40101;53.002;6.488;2023-02-19T15:04:54;9.60;99.90
54192;DHT22;40101;53.002;6.488;2023-02-19T15:07:31;9.60;99.90
54192;DHT22;40101;53.002;6.488;2023-02-19T15:10:00;9.70;99.90
54192;DHT22;40101;53.002;6.488;2023-02-19T15:12:45;9.70;99.90
54192;DHT22;40101;53.002;6.488;2023-02-19T15:15:17;9.60;99.90
54192;DHT22;40101;53.002;6.488;2023-02-19T15:17:45;9.50;99.90
54192;DHT22;40101;53.002;6.488;2023-02-19T15:20:17;9.50;99.90
54192;DHT22;40101;53.002;6.488;2023-02-19T15:22:43;9.50;99.90
54192;DHT22;40101;53.002;6.488;2023-02-19T15:25:15;9.50;99.90
54192;DHT22;40101;53.002;6.488;2023-02-19T15:27:42;9.50;99.90
54192;DHT22;40101;53.002;6.488;2023-02-19T15:30:20;9.50;99.90
54192;DHT22;40101;53.002;6.488;2023-02-19T15:32:55;9.70;99.90
54192;DHT22;40101;53.002;6.488;2023-02-19T15:35:21;9.80;99.90
54192;DHT22;40101;53.002;6.488;2023-02-19T15:37:49;9.90;99.90
54192;DHT22;40101;53.002;6.488;2023-02-19T15:40:16;9.90;99.90
54192;DHT22;40101;53.002;6.488;2023-02-19T15:42:45;9.90;99.90
54192;DHT22;40101;53.002;6.488;2023-02-19T15:45:44;9.90;99.90
54192;DHT22;40101;53.002;6.488;2023-02-19T15:48:18;9.80;99.90
54192;DHT22;40101;53.002;6.488;2023-02-19T15:50:58;9.70;99.90
54192;DHT22;40101;53.002;6.488;2023-02-19T15:53:36;9.60;99.90
54192;DHT22;40101;53.002;6.488;2023-02-19T15:56:10;9.40;99.90
54192;DHT22;40101;53.002;6.488;2023-02-19T16:03:50;9.00;99.90
54192;DHT22;40101;53.002;6.488;2023-02-19T16:06:17;8.90;99.90
54192;DHT22;40101;53.002;6.488;2023-02-19T16:08:44;8.90;99.90
54192;DHT22;40101;53.002;6.488;2023-02-19T16:11:26;8.90;99.90
54192;DHT22;40101;53.002;6.488;2023-02-19T16:14:17;8.80;99.90
54192;DHT22;40101;53.002;6.488;2023-02-19T16:16:45;8.70;99.90
54192;DHT22;40101;53.002;6.488;2023-02-19T16:19:11;8.70;99.90
54192;DHT22;40101;53.002;6.488;2023-02-19T16:21:37;8.60;99.90
54192;DHT22;40101;53.002;6.488;2023-02-19T16:24:25;8.60;99.90
54192;DHT22;40101;53.002;6.488;2023-02-19T16:26:51;8.50;99.90
54192;DHT22;40101;53.002;6.488;2023-02-19T16:29:23;8.40;99.90
54192;DHT22;40101;53.002;6.488;2023-02-19T16:31:51;8.40;99.90
54192;DHT22;40101;53.002;6.488;2023-02-19T16:34:33;8.30;99.90
54192;DHT22;40101;53.002;6.488;2023-02-19T16:37:00;8.30;99.90
54192;DHT22;40101;53.002;6.488;2023-02-19T16:39:26;8.20;99.90
54192;DHT22;40101;53.002;6.488;2023-02-19T16:47:14;8.30;99.90
54192;DHT22;40101;53.002;6.488;2023-02-19T16:49:41;8.10;99.90
54192;DHT22;40101;53.002;6.488;2023-02-19T16:52:11;8.00;99.90
54192;DHT22;40101;53.002;6.488;2023-02-19T16:54:38;8.00;99.90
54192;DHT22;40101;53.002;6.488;2023-02-19T16:57:04;8.20;99.90
54192;DHT22;40101;53.002;6.488;2023-02-19T16:59:29;7.90;99.90
54192;DHT22;40101;53.002;6.488;2023-02-19T17:01:55;7.90;99.90
54192;DHT22;40101;53.002;6.488;2023-02-19T17:04:21;7.80;99.90
54192;DHT22;40101;53.002;6.488;2023-02-19T17:06:51;7.80;99.90
54192;DHT22;40101;53.002;6.488;2023-02-19T17:09:16;7.80;99.90
54192;DHT22;40101;53.002;6.488;2023-02-19T17:11:43;7.80;99.90
54192;DHT22;40101;53.002;6.488;2023-02-19T17:14:09;7.70;99.90
54192;DHT22;40101;53.002;6.488;2023-02-19T17:16:34;7.60;99.90
54192;DHT22;40101;53.002;6.488;2023-02-19T17:19:08;7.70;99.90
54192;DHT22;40101;53.002;6.488;2023-02-19T17:21:36;7.60;99.90
54192;DHT22;40101;53.002;6.488;2023-02-19T17:24:02;7.40;99.90
54192;DHT22;40101;53.002;6.488;2023-02-19T17:26:30;7.40;99.90
54192;DHT22;40101;53.002;6.488;2023-02-19T17:28:58;7.40;99.90
54192;DHT22;40101;53.002;6.488;2023-02-19T17:31:24;7.30;99.90
54192;DHT22;40101;53.002;6.488;2023-02-19T17:33:50;7.30;99.90
54192;DHT22;40101;53.002;6.488;2023-02-19T17:36:19;7.20;99.90
54192;DHT22;40101;53.002;6.488;2023-02-19T17:38:46;7.20;99.90
54192;DHT22;40101;53.002;6.488;2023-02-19T17:41:11;7.30;99.90
54192;DHT22;40101;53.002;6.488;2023-02-19T17:43:37;7.20;99.90
54192;DHT22;40101;53.002;6.488;2023-02-19T17:46:03;7.00;99.90
54192;DHT22;40101;53.002;6.488;2023-02-19T17:48:28;7.00;99.90
54192;DHT22;40101;53.002;6.488;2023-02-19T17:50:54;6.80;99.90
54192;DHT22;40101;53.002;6.488;2023-02-19T17:53:20;6.80;99.90
54192;DHT22;40101;53.002;6.488;2023-02-19T17:55:46;6.80;99.90
54192;DHT22;40101;53.002;6.488;2023-02-19T17:58:12;6.70;99.90
54192;DHT22;40101;53.002;6.488;2023-02-19T18:00:38;7.00;99.90
54192;DHT22;40101;53.002;6.488;2023-02-19T18:03:04;6.60;99.90